Time;durP1;ratioP1;P1;durP2;ratioP2;P2;SDS_P1;SDS_P2;PMS_P1;PMS_P2;Temp;Humidity;BMP_temperature;BMP_pressure;BME280_temperature;BME280_humidity;BME280_pressure;Samples;Min_cycle;Max_cycle;Signal;HPM_P1;HPM_P2
2023/12/30 00:01:04;;;;;;;3.85;1.13;;;6.10;99.90;;;;;;4119531;28;20423;-80
2023/12/30 00:03:04;;;;;;;8.82;1.52;;;6.00;99.90;;;;;;4119332;28;20053;-81
2023/12/30 00:05:08;;;;;;;5.13;1.33;;;6.30;99.90;;;;;;4133253;28;20058;-81
2023/12/30 00:07:09;;;;;;;9.10;1.05;;;6.00;99.90;;;;;;4135330;28;20050;-80
2023/12/30 00:09:10;;;;;;;5.43;0.85;;;6.00;99.90;;;;;;4134953;28;20406;-80
2023/12/30 00:11:11;;;;;;;16.52;1.08;;;6.00;99.90;;;;;;4135544;28;20065;-80
2023/12/30 00:13:15;;;;;;;9.88;1.42;;;5.90;99.90;;;;;;4133555;28;20054;-81
2023/12/30 00:15:16;;;;;;;4.07;0.90;;;5.90;99.90;;;;;;4119100;28;20101;-81
2023/12/30 00:17:17;;;;;;;9.07;1.55;;;6.80;99.90;;;;;;4118733;28;20042;-81
2023/12/30 00:19:19;;;;;;;7.00;0.95;;;6.60;99.90;;;;;;4119021;28;20054;-82
2023/12/30 00:21:20;;;;;;;9.50;1.55;;;5.90;99.90;;;;;;4119195;28;20440;-81
2023/12/30 00:23:21;;;;;;;5.15;1.70;;;5.90;99.90;;;;;;4118558;28;20043;-81
2023/12/30 00:25:22;;;;;;;10.27;1.17;;;5.90;99.90;;;;;;4118930;28;20167;-81
2023/12/30 00:27:22;;;;;;;5.30;0.98;;;6.50;99.90;;;;;;4118750;28;20039;-81
2023/12/30 00:29:23;;;;;;;5.13;1.10;;;5.90;99.90;;;;;;4117476;28;20047;-81
2023/12/30 00:31:25;;;;;;;6.30;1.00;;;5.90;99.90;;;;;;4125788;28;20046;-81
2023/12/30 00:33:27;;;;;;;8.88;1.50;;;5.90;99.90;;;;;;4115192;28;20055;-81
2023/12/30 00:35:29;;;;;;;3.33;0.95;;;5.90;99.90;;;;;;4123944;28;20861;-81
2023/12/30 00:37:31;;;;;;;8.15;0.90;;;6.60;99.90;;;;;;4117578;28;20400;-81
2023/12/30 00:39:32;;;;;;;10.38;1.50;;;5.90;99.90;;;;;;4116929;28;20112;-81
2023/12/30 00:41:33;;;;;;;5.63;0.82;;;6.60;99.90;;;;;;4100214;29;20079;-81
2023/12/30 00:43:34;;;;;;;5.93;1.17;;;6.30;99.90;;;;;;4117493;28;20049;-81
2023/12/30 00:45:35;;;;;;;5.90;0.95;;;6.10;99.90;;;;;;4118105;28;20100;-80
2023/12/30 00:47:37;;;;;;;9.93;1.00;;;5.90;99.90;;;;;;4118802;28;20055;-81
2023/12/30 00:49:38;;;;;;;14.95;1.40;;;6.00;99.90;;;;;;4131864;28;20125;-81
2023/12/30 00:51:38;;;;;;;4.40;0.90;;;6.50;99.90;;;;;;4134779;28;20046;-81
2023/12/30 00:53:39;;;;;;;11.68;1.10;;;6.00;99.90;;;;;;4117786;28;20054;-81
2023/12/30 00:55:40;;;;;;;3.38;0.60;;;6.00;99.90;;;;;;4117491;28;20058;-81
2023/12/30 00:57:40;;;;;;;10.23;1.30;;;6.10;99.90;;;;;;4135141;28;20162;-81
2023/12/30 00:59:41;;;;;;;9.95;1.67;;;6.30;99.90;;;;;;4134848;28;20068;-81
2023/12/30 01:01:42;;;;;;;3.85;0.65;;;6.50;99.90;;;;;;4133394;28;20046;-81
2023/12/30 01:03:43;;;;;;;4.80;1.00;;;6.00;99.90;;;;;;4134962;28;20602;-81
2023/12/30 01:05:44;;;;;;;9.68;1.60;;;6.40;99.90;;;;;;4134132;28;20081;-81
2023/12/30 01:07:46;;;;;;;4.90;0.90;;;6.40;99.90;;;;;;4134347;28;20133;-81
2023/12/30 01:09:46;;;;;;;9.95;2.35;;;7.30;99.90;;;;;;4117073;28;20056;-81
2023/12/30 01:11:47;;;;;;;4.88;0.80;;;7.10;99.90;;;;;;4118455;28;20083;-81
2023/12/30 01:13:48;;;;;;;13.48;1.00;;;6.00;99.90;;;;;;4118644;28;20431;-81
2023/12/30 01:15:48;;;;;;;3.40;0.73;;;6.80;99.90;;;;;;4117260;28;20042;-81
2023/12/30 01:17:50;;;;;;;4.10;0.98;;;6.00;99.90;;;;;;4131964;28;20053;-81
2023/12/30 01:19:51;;;;;;;7.68;0.90;;;6.00;99.90;;;;;;4117555;28;20520;-81
2023/12/30 01:21:52;;;;;;;8.07;1.23;;;6.60;99.90;;;;;;4118462;28;20042;-81
2023/12/30 01:23:52;;;;;;;7.03;1.10;;;6.00;99.90;;;;;;4118997;28;20054;-81
2023/12/30 01:25:54;;;;;;;3.63;0.82;;;6.70;99.90;;;;;;4134408;28;20497;-81
2023/12/30 01:27:56;;;;;;;3.67;0.93;;;6.00;99.90;;;;;;4134685;28;20050;-81
2023/12/30 01:29:57;;;;;;;7.60;0.88;;;7.00;99.90;;;;;;4134438;28;20132;-81
2023/12/30 01:31:58;;;;;;;8.48;1.58;;;6.00;99.90;;;;;;4133561;28;20380;-81
2023/12/30 01:33:59;;;;;;;5.35;1.33;;;6.50;99.90;;;;;;4134180;28;20506;-81
2023/12/30 01:36:01;;;;;;;8.07;1.55;;;6.10;99.90;;;;;;4133780;28;20074;-81
2023/12/30 01:38:02;;;;;;;5.40;1.35;;;6.10;99.90;;;;;;4133512;28;20543;-81
2023/12/30 01:40:03;;;;;;;9.18;1.88;;;6.10;99.90;;;;;;4133423;28;20046;-81
2023/12/30 01:42:03;;;;;;;9.63;0.82;;;6.10;99.90;;;;;;4133997;28;20046;-81
2023/12/30 01:44:04;;;;;;;6.90;0.90;;;6.10;99.90;;;;;;4132940;28;20046;-81
2023/12/30 01:46:08;;;;;;;6.63;0.70;;;6.10;99.90;;;;;;4117596;28;20054;-81
2023/12/30 01:48:08;;;;;;;10.68;1.58;;;6.10;99.90;;;;;;4100590;29;20439;-81
2023/12/30 01:50:10;;;;;;;8.77;1.13;;;6.20;99.90;;;;;;4100592;29;20051;-81
2023/12/30 01:52:12;;;;;;;4.35;1.73;;;6.10;99.90;;;;;;4100718;29;20055;-81
2023/12/30 01:54:16;;;;;;;9.00;1.73;;;6.20;99.90;;;;;;4100620;28;20061;-81
2023/12/30 01:56:17;;;;;;;9.10;1.60;;;6.20;99.90;;;;;;4100300;29;20077;-81
2023/12/30 01:58:19;;;;;;;6.97;1.33;;;6.20;99.90;;;;;;4099933;29;20500;-81
2023/12/30 02:00:22;;;;;;;9.18;1.58;;;6.70;99.90;;;;;;4132256;28;20113;-81
2023/12/30 02:02:23;;;;;;;8.27;1.25;;;6.20;99.90;;;;;;4116123;28;20050;-81
2023/12/30 02:04:25;;;;;;;6.07;1.05;;;6.20;99.90;;;;;;4133831;28;20125;-81
2023/12/30 02:06:26;;;;;;;10.57;1.15;;;6.30;99.90;;;;;;4133950;28;20057;-80
2023/12/30 02:08:27;;;;;;;8.98;2.00;;;6.30;99.90;;;;;;4115979;28;20058;-81
2023/12/30 02:10:28;;;;;;;4.97;1.05;;;6.50;99.90;;;;;;4133298;28;20057;-81
2023/12/30 02:12:28;;;;;;;11.15;1.45;;;6.90;99.90;;;;;;4115828;28;20051;-81
2023/12/30 02:14:30;;;;;;;11.05;1.08;;;6.90;99.90;;;;;;4116049;28;20068;-81
2023/12/30 02:16:31;;;;;;;10.73;1.00;;;6.40;99.90;;;;;;4116288;28;20049;-81
2023/12/30 02:18:32;;;;;;;8.90;0.85;;;6.50;99.90;;;;;;4100031;29;20104;-80
2023/12/30 02:20:33;;;;;;;7.72;0.85;;;6.50;99.90;;;;;;4116257;28;20523;-81
2023/12/30 02:22:39;;;;;;;8.80;1.52;;;6.50;99.90;;;;;;4099678;29;20051;-81
2023/12/30 02:24:40;;;;;;;8.75;1.85;;;6.50;99.90;;;;;;4114384;28;20468;-81
2023/12/30 02:26:41;;;;;;;8.85;1.08;;;6.50;99.90;;;;;;4115643;28;20051;-81
2023/12/30 02:28:41;;;;;;;8.50;1.13;;;6.60;99.90;;;;;;4099540;29;20524;-81
2023/12/30 02:30:42;;;;;;;5.45;0.93;;;7.00;99.90;;;;;;4115051;28;20050;-80
2023/12/30 02:32:43;;;;;;;5.93;1.20;;;6.50;99.90;;;;;;4115940;28;20500;-81
2023/12/30 02:34:44;;;;;;;8.57;0.82;;;6.90;99.90;;;;;;4133851;28;20538;-81
2023/12/30 02:36:46;;;;;;;8.90;0.70;;;6.90;99.90;;;;;;4116473;28;20866;-81
2023/12/30 02:38:48;;;;;;;9.10;1.20;;;6.50;99.90;;;;;;4115989;28;20051;-81
2023/12/30 02:40:49;;;;;;;8.60;1.60;;;6.50;99.90;;;;;;4116430;28;20090;-81
2023/12/30 02:42:50;;;;;;;12.90;1.60;;;7.10;99.90;;;;;;4129249;28;20052;-81
2023/12/30 02:44:52;;;;;;;12.57;1.80;;;7.30;99.90;;;;;;4131713;28;20196;-81
2023/12/30 02:46:52;;;;;;;9.57;1.77;;;6.60;99.90;;;;;;4115912;28;20043;-81
2023/12/30 02:48:53;;;;;;;7.68;1.25;;;6.60;99.90;;;;;;4132453;28;20058;-81
2023/12/30 02:50:54;;;;;;;6.00;1.05;;;6.60;99.90;;;;;;4132685;28;20152;-81
2023/12/30 02:52:56;;;;;;;8.73;0.80;;;6.60;99.90;;;;;;4116277;28;20086;-81
2023/12/30 02:54:59;;;;;;;7.35;1.30;;;6.90;99.90;;;;;;4133033;28;20074;-81
2023/12/30 02:57:02;;;;;;;13.40;2.47;;;6.70;99.90;;;;;;4134071;28;20054;-81
2023/12/30 02:59:03;;;;;;;3.72;1.35;;;6.70;99.90;;;;;;4135307;28;20078;-81
2023/12/30 03:01:05;;;;;;;3.50;1.10;;;6.70;99.90;;;;;;4134598;28;20049;-81
2023/12/30 03:03:05;;;;;;;8.57;0.65;;;6.60;99.90;;;;;;4134408;28;20042;-81
2023/12/30 03:05:07;;;;;;;7.72;0.98;;;6.80;99.90;;;;;;4146786;28;20042;-80
2023/12/30 03:07:10;;;;;;;6.70;1.08;;;6.70;99.90;;;;;;4125225;28;20094;-81
2023/12/30 03:09:12;;;;;;;7.20;1.52;;;6.70;99.90;;;;;;4136660;28;20054;-80
2023/12/30 03:11:13;;;;;;;17.45;1.83;;;6.70;99.90;;;;;;4126194;28;20035;-80
2023/12/30 03:13:13;;;;;;;8.15;1.13;;;6.80;99.90;;;;;;4125889;28;20097;-81
2023/12/30 03:15:14;;;;;;;11.02;1.00;;;6.80;99.90;;;;;;4131373;28;20137;-81
2023/12/30 03:17:15;;;;;;;10.48;1.20;;;7.10;99.90;;;;;;4140891;28;20054;-81
2023/12/30 03:19:16;;;;;;;7.22;1.88;;;7.10;99.90;;;;;;4136961;28;20062;-81
2023/12/30 03:21:18;;;;;;;9.23;1.20;;;7.40;99.90;;;;;;4135617;28;20494;-81
2023/12/30 03:23:22;;;;;;;8.75;0.90;;;7.10;99.90;;;;;;4135632;28;20047;-81
2023/12/30 03:25:22;;;;;;;9.98;1.52;;;6.90;99.90;;;;;;4117686;28;20512;-80
2023/12/30 03:27:24;;;;;;;12.07;2.13;;;6.90;99.90;;;;;;4135473;28;20117;-81
2023/12/30 03:29:25;;;;;;;5.32;1.83;;;6.90;99.90;;;;;;4118462;28;20078;-81
2023/12/30 03:31:29;;;;;;;10.13;1.83;;;7.60;99.90;;;;;;4102321;29;20051;-81
2023/12/30 03:33:30;;;;;;;11.45;1.15;;;6.90;99.90;;;;;;4135025;28;20043;-80
2023/12/30 03:35:33;;;;;;;6.53;1.33;;;6.60;99.90;;;;;;4135067;28;20519;-81
2023/12/30 03:37:33;;;;;;;5.10;0.70;;;7.20;99.90;;;;;;4135480;28;20042;-81
2023/12/30 03:39:34;;;;;;;8.05;1.65;;;6.90;99.90;;;;;;4118130;28;20138;-81
2023/12/30 03:41:35;;;;;;;3.67;0.80;;;6.80;99.90;;;;;;4134941;28;20061;-81
2023/12/30 03:43:36;;;;;;;4.10;1.00;;;7.40;99.90;;;;;;4134691;28;20057;-80
2023/12/30 03:45:37;;;;;;;12.10;2.65;;;6.90;99.90;;;;;;4135271;28;20046;-81
2023/12/30 03:47:37;;;;;;;14.85;2.15;;;7.80;99.90;;;;;;4118200;28;20043;-81
2023/12/30 03:49:39;;;;;;;11.93;1.58;;;7.00;99.90;;;;;;4134898;28;20054;-80
2023/12/30 03:51:40;;;;;;;9.27;1.00;;;7.60;99.90;;;;;;4101730;29;20079;-81
2023/12/30 03:53:41;;;;;;;6.32;0.80;;;6.00;99.90;;;;;;4134926;28;20502;-81
2023/12/30 03:55:41;;;;;;;10.82;0.98;;;6.90;99.90;;;;;;4134910;28;20140;-81
2023/12/30 03:57:44;;;;;;;7.40;2.00;;;6.90;99.90;;;;;;4117222;28;20427;-81
2023/12/30 03:59:45;;;;;;;9.93;1.92;;;6.50;99.90;;;;;;4107566;28;20043;-82
2023/12/30 04:01:46;;;;;;;7.88;1.20;;;7.60;99.90;;;;;;4117496;28;20098;-82
2023/12/30 04:03:46;;;;;;;9.73;3.08;;;7.20;99.90;;;;;;4118603;28;20039;-81
2023/12/30 04:05:47;;;;;;;6.72;1.45;;;7.70;99.90;;;;;;4100859;29;20047;-81
2023/12/30 04:07:50;;;;;;;8.13;1.60;;;7.70;99.90;;;;;;4118042;28;20547;-81
2023/12/30 04:09:51;;;;;;;8.32;1.58;;;6.90;99.90;;;;;;4118589;28;20078;-81
2023/12/30 04:11:52;;;;;;;5.07;0.95;;;7.70;99.90;;;;;;4101146;29;20534;-82
2023/12/30 04:13:53;;;;;;;11.80;1.63;;;6.80;99.90;;;;;;4101147;28;20161;-81
2023/12/30 04:15:54;;;;;;;8.88;1.10;;;7.60;99.90;;;;;;4119669;28;20051;-82
2023/12/30 04:17:55;;;;;;;13.50;1.80;;;6.90;99.90;;;;;;4085370;29;20134;-81
2023/12/30 04:19:56;;;;;;;8.77;1.42;;;6.90;99.90;;;;;;4100633;28;20059;-82
2023/12/30 04:21:57;;;;;;;12.23;1.23;;;7.60;99.90;;;;;;4127506;28;20057;-81
2023/12/30 04:23:58;;;;;;;11.82;1.98;;;6.90;99.90;;;;;;4117528;28;20046;-81
2023/12/30 04:25:58;;;;;;;9.60;1.15;;;7.20;99.90;;;;;;4116679;28;20177;-82
2023/12/30 04:28:00;;;;;;;9.45;1.52;;;7.20;99.90;;;;;;4119789;28;20078;-81
2023/12/30 04:30:01;;;;;;;8.75;0.98;;;7.20;99.90;;;;;;4103349;28;20106;-82
2023/12/30 04:32:03;;;;;;;6.50;0.98;;;6.70;99.90;;;;;;4102043;29;20047;-81
2023/12/30 04:34:05;;;;;;;7.60;1.60;;;6.70;99.90;;;;;;4102465;29;20177;-81
2023/12/30 04:36:05;;;;;;;6.03;0.90;;;6.60;99.90;;;;;;4085252;29;20059;-81
2023/12/30 04:38:06;;;;;;;9.82;1.08;;;6.70;99.90;;;;;;4117379;28;20055;-81
2023/12/30 04:40:07;;;;;;;12.07;1.52;;;7.00;99.90;;;;;;4101088;29;20393;-81
2023/12/30 04:42:08;;;;;;;11.10;1.67;;;6.80;99.90;;;;;;4085236;29;20403;-82
2023/12/30 04:44:09;;;;;;;9.23;1.50;;;6.40;99.90;;;;;;4116650;28;20047;-82
2023/12/30 04:46:14;;;;;;;11.13;1.40;;;6.90;99.90;;;;;;4100764;28;20043;-81
2023/12/30 04:48:15;;;;;;;11.57;1.30;;;6.80;99.90;;;;;;4117862;28;20051;-82
2023/12/30 04:50:15;;;;;;;8.85;1.15;;;6.80;99.90;;;;;;4117720;28;20110;-82
2023/12/30 04:52:16;;;;;;;16.85;2.03;;;6.80;99.90;;;;;;4116761;28;20051;-82
2023/12/30 04:54:17;;;;;;;7.88;1.45;;;6.80;99.90;;;;;;4132608;28;20046;-81
2023/12/30 04:56:18;;;;;;;11.88;2.88;;;6.80;99.90;;;;;;4100509;28;20377;-81
2023/12/30 04:58:18;;;;;;;9.77;2.17;;;7.40;99.90;;;;;;4116605;28;20055;-81
2023/12/30 05:00:19;;;;;;;11.85;1.73;;;7.60;99.90;;;;;;4117588;28;20129;-81
2023/12/30 05:02:20;;;;;;;11.30;1.10;;;6.80;99.90;;;;;;4100385;29;20050;-81
2023/12/30 05:04:21;;;;;;;8.18;1.40;;;7.00;99.90;;;;;;4117886;28;20051;-82
2023/12/30 05:06:22;;;;;;;8.32;2.25;;;6.80;99.90;;;;;;4116603;28;20043;-82
2023/12/30 05:08:23;;;;;;;7.60;1.50;;;6.90;99.90;;;;;;4116582;28;20134;-81
2023/12/30 05:10:24;;;;;;;4.68;1.02;;;7.00;99.90;;;;;;4117304;28;20046;-81
2023/12/30 05:12:25;;;;;;;10.38;1.50;;;6.90;99.90;;;;;;4131114;28;20543;-81
2023/12/30 05:14:26;;;;;;;10.05;1.92;;;6.90;99.90;;;;;;4132798;28;20050;-81
2023/12/30 05:16:26;;;;;;;6.65;1.48;;;7.20;99.90;;;;;;4133410;28;20089;-81
2023/12/30 05:18:27;;;;;;;9.75;1.65;;;8.10;99.90;;;;;;4132090;28;20074;-79
2023/12/30 05:20:28;;;;;;;13.85;2.42;;;5.80;99.90;;;;;;4147821;28;20050;-79
2023/12/30 05:22:29;;;;;;;6.72;1.60;;;7.10;99.90;;;;;;4141885;28;20050;-79
2023/12/30 05:24:29;;;;;;;9.00;2.60;;;6.80;99.90;;;;;;4132111;28;20518;-79
2023/12/30 05:26:30;;;;;;;12.55;1.17;;;6.90;99.90;;;;;;4115929;28;20102;-81
2023/12/30 05:28:31;;;;;;;12.82;2.42;;;6.80;99.90;;;;;;4133530;28;20125;-81
2023/12/30 05:30:32;;;;;;;8.82;1.75;;;7.10;99.90;;;;;;4133381;28;20046;-81
2023/12/30 05:32:32;;;;;;;8.10;1.10;;;7.10;99.90;;;;;;4133506;28;20050;-80
2023/12/30 05:34:33;;;;;;;6.00;1.30;;;6.90;99.90;;;;;;4115854;28;20051;-81
2023/12/30 05:36:37;;;;;;;13.60;1.35;;;7.00;99.90;;;;;;4129871;28;20042;-79
2023/12/30 05:38:38;;;;;;;10.75;2.05;;;6.90;99.90;;;;;;4107307;29;20516;-81
2023/12/30 05:40:39;;;;;;;11.18;1.75;;;6.90;99.90;;;;;;4101951;28;20080;-81
2023/12/30 05:42:40;;;;;;;7.65;1.00;;;7.70;99.90;;;;;;4134788;28;20046;-81
2023/12/30 05:44:41;;;;;;;15.15;1.85;;;6.90;99.90;;;;;;4134472;28;20053;-81
2023/12/30 05:46:42;;;;;;;8.43;1.20;;;7.40;99.90;;;;;;4116805;28;20053;-81
2023/12/30 05:48:43;;;;;;;13.05;2.08;;;6.90;99.90;;;;;;4100249;28;20047;-81
2023/12/30 05:50:57;;;;;;;6.85;1.65;;;6.90;99.90;;;;;;4134240;28;20050;-81
2023/12/30 05:52:59;;;;;;;13.00;1.40;;;7.30;99.90;;;;;;4132677;28;20046;-81
2023/12/30 05:54:59;;;;;;;6.38;1.25;;;6.90;99.90;;;;;;4133299;28;20081;-81
2023/12/30 05:57:01;;;;;;;11.57;2.03;;;7.50;99.90;;;;;;4132473;28;20053;-81
2023/12/30 05:59:02;;;;;;;7.30;1.40;;;6.80;99.90;;;;;;4133884;28;20057;-80
2023/12/30 06:01:03;;;;;;;13.88;1.80;;;6.80;99.90;;;;;;4122143;28;20483;-82
2023/12/30 06:03:04;;;;;;;6.47;1.17;;;6.70;99.90;;;;;;4115688;28;20121;-82
2023/12/30 06:05:06;;;;;;;9.25;1.65;;;7.00;99.90;;;;;;4133542;28;20042;-83
2023/12/30 06:07:08;;;;;;;12.15;2.55;;;6.70;99.90;;;;;;4118603;28;20043;-82
2023/12/30 06:09:08;;;;;;;12.93;2.53;;;6.60;99.90;;;;;;4134431;28;20049;-82
2023/12/30 06:11:10;;;;;;;3.97;0.90;;;6.70;99.90;;;;;;4133260;28;20057;-82
2023/12/30 06:13:12;;;;;;;14.57;1.60;;;6.70;99.90;;;;;;4121314;28;20546;-81
2023/12/30 06:15:13;;;;;;;13.57;2.40;;;6.70;99.90;;;;;;4119228;28;20055;-82
2023/12/30 06:17:15;;;;;;;11.68;1.33;;;6.70;99.90;;;;;;4134514;28;20042;-82
2023/12/30 06:19:16;;;;;;;9.80;1.30;;;7.40;99.90;;;;;;4116935;28;20060;-80
2023/12/30 06:21:17;;;;;;;9.02;2.17;;;6.70;99.90;;;;;;4115552;28;20837;-79
2023/12/30 06:23:20;;;;;;;11.10;1.15;;;7.60;99.90;;;;;;4117424;28;20042;-78
2023/12/30 06:25:20;;;;;;;7.57;1.80;;;6.70;99.90;;;;;;4118337;28;20061;-79
2023/12/30 06:27:21;;;;;;;9.98;1.55;;;6.70;99.90;;;;;;4103166;28;20508;-79
2023/12/30 06:29:26;;;;;;;8.00;1.17;;;7.50;99.90;;;;;;4127730;28;20115;-79
2023/12/30 06:31:27;;;;;;;9.15;2.15;;;7.00;99.90;;;;;;4120712;28;20051;-79
2023/12/30 06:33:29;;;;;;;9.68;1.75;;;6.70;99.90;;;;;;4122436;28;20403;-79
2023/12/30 06:35:29;;;;;;;9.80;1.58;;;6.80;99.90;;;;;;4122643;28;20053;-81
2023/12/30 06:37:30;;;;;;;16.15;2.28;;;6.70;99.90;;;;;;4123447;28;20476;-80
2023/12/30 06:39:31;;;;;;;11.40;1.60;;;6.70;99.90;;;;;;4107155;29;20520;-80
2023/12/30 06:41:33;;;;;;;8.75;1.50;;;6.80;99.90;;;;;;4122698;28;20047;-81
2023/12/30 06:43:33;;;;;;;10.40;1.15;;;6.70;99.90;;;;;;4119678;28;20055;-81
2023/12/30 06:45:34;;;;;;;8.10;1.08;;;7.00;99.90;;;;;;4115628;28;20550;-81
2023/12/30 06:47:36;;;;;;;12.15;2.17;;;6.80;99.90;;;;;;4117632;28;20047;-80
2023/12/30 06:49:39;;;;;;;14.43;2.95;;;7.50;99.90;;;;;;4104557;28;20110;-81
2023/12/30 06:51:42;;;;;;;9.48;2.13;;;7.30;99.90;;;;;;4112419;28;20047;-81
2023/12/30 06:53:43;;;;;;;9.90;1.70;;;6.70;99.90;;;;;;4116042;28;20061;-81
2023/12/30 06:55:43;;;;;;;13.25;1.90;;;7.50;99.90;;;;;;4115801;28;20082;-82
2023/12/30 06:57:44;;;;;;;11.38;1.20;;;6.80;99.90;;;;;;4117027;28;20070;-82
2023/12/30 06:59:45;;;;;;;6.60;1.17;;;7.50;99.90;;;;;;4099436;29;20083;-81
2023/12/30 07:01:46;;;;;;;7.65;1.45;;;7.00;99.90;;;;;;4115282;28;20051;-81
2023/12/30 07:03:47;;;;;;;9.77;2.30;;;6.70;99.90;;;;;;4110501;28;20468;-81
2023/12/30 07:05:48;;;;;;;13.13;1.60;;;6.60;99.90;;;;;;4100040;29;20087;-81
2023/12/30 07:07:49;;;;;;;4.80;0.80;;;6.80;99.90;;;;;;4111516;28;20065;-81
2023/12/30 07:09:50;;;;;;;9.52;1.35;;;6.60;99.90;;;;;;4116674;28;20070;-81
2023/12/30 07:11:51;;;;;;;11.32;1.88;;;7.00;99.90;;;;;;4113763;28;20049;-81
2023/12/30 07:13:53;;;;;;;9.60;1.27;;;6.70;99.90;;;;;;4121065;28;20047;-81
2023/12/30 07:15:54;;;;;;;9.95;1.50;;;6.60;99.90;;;;;;4083788;29;20060;-81
2023/12/30 07:17:55;;;;;;;15.10;1.55;;;6.60;99.90;;;;;;4101066;28;20059;-81
2023/12/30 07:19:56;;;;;;;14.07;1.83;;;6.60;99.90;;;;;;4107864;28;20069;-81
2023/12/30 07:21:57;;;;;;;11.75;1.73;;;6.60;99.90;;;;;;4115288;28;20081;-81
2023/12/30 07:23:58;;;;;;;7.93;1.23;;;6.60;99.90;;;;;;4116411;28;20039;-81
2023/12/30 07:25:58;;;;;;;13.07;1.30;;;6.60;99.90;;;;;;4116140;28;20539;-81
2023/12/30 07:27:59;;;;;;;6.63;1.23;;;6.80;99.90;;;;;;4116315;28;20487;-81
2023/12/30 07:30:01;;;;;;;19.83;2.95;;;6.60;99.90;;;;;;4099083;29;20049;-81
2023/12/30 07:32:03;;;;;;;7.20;1.65;;;6.60;99.90;;;;;;4115785;28;20491;-81
2023/12/30 07:34:06;;;;;;;14.45;1.35;;;6.60;99.90;;;;;;4099244;29;20055;-81
2023/12/30 07:36:07;;;;;;;5.22;1.42;;;7.00;99.90;;;;;;4116296;28;20587;-81
2023/12/30 07:38:09;;;;;;;12.13;1.55;;;6.60;99.90;;;;;;4116363;28;20042;-81
2023/12/30 07:40:13;;;;;;;11.43;1.60;;;6.80;99.90;;;;;;4110034;28;20134;-81
2023/12/30 07:42:13;;;;;;;10.27;1.63;;;7.30;99.90;;;;;;4115538;28;20055;-81
2023/12/30 07:44:16;;;;;;;10.77;1.33;;;6.60;99.90;;;;;;4134083;28;20125;-82
2023/12/30 07:46:17;;;;;;;9.82;1.33;;;6.60;99.90;;;;;;4126620;28;20042;-81
2023/12/30 07:48:18;;;;;;;7.07;1.30;;;6.60;99.90;;;;;;4131459;28;20046;-81
2023/12/30 07:50:18;;;;;;;8.30;1.33;;;7.30;99.90;;;;;;4117280;28;20054;-81
2023/12/30 07:52:19;;;;;;;16.83;1.45;;;6.60;99.90;;;;;;4131281;28;20444;-81
2023/12/30 07:54:20;;;;;;;6.25;1.25;;;7.10;99.90;;;;;;4112282;28;20492;-81
2023/12/30 07:56:21;;;;;;;5.30;1.35;;;6.60;99.90;;;;;;4118698;28;20173;-81
2023/12/30 07:58:21;;;;;;;6.97;2.00;;;6.60;99.90;;;;;;4101836;29;20067;-80
2023/12/30 08:00:22;;;;;;;7.22;1.33;;;7.00;99.90;;;;;;4108799;28;20058;-81
2023/12/30 08:02:23;;;;;;;12.43;1.50;;;6.90;99.90;;;;;;4133657;28;20144;-80
2023/12/30 08:04:24;;;;;;;14.85;1.20;;;6.60;99.90;;;;;;4133695;28;20054;-80
2023/12/30 08:06:25;;;;;;;12.02;2.10;;;6.60;99.90;;;;;;4134627;28;20038;-81
2023/12/30 08:08:26;;;;;;;8.20;1.17;;;6.70;99.90;;;;;;4133973;28;20132;-81
2023/12/30 08:10:26;;;;;;;6.32;1.50;;;7.30;99.90;;;;;;4108917;28;20149;-81
2023/12/30 08:12:27;;;;;;;7.70;1.10;;;7.00;99.90;;;;;;4118876;28;20071;-81
2023/12/30 08:14:28;;;;;;;6.03;1.27;;;7.30;99.90;;;;;;4085387;29;20048;-80
2023/12/30 08:16:29;;;;;;;8.25;1.77;;;6.60;99.90;;;;;;4101072;29;20182;-81
2023/12/30 08:18:29;;;;;;;16.85;2.20;;;7.30;99.90;;;;;;4119042;28;20057;-81
2023/12/30 08:20:30;;;;;;;5.85;1.83;;;6.90;99.90;;;;;;4118622;28;20051;-81
2023/12/30 08:22:31;;;;;;;9.43;1.13;;;6.80;99.90;;;;;;4118954;28;20411;-80
2023/12/30 08:24:34;;;;;;;10.95;1.63;;;6.90;99.90;;;;;;4089331;28;20475;-81
2023/12/30 08:26:34;;;;;;;8.48;1.52;;;7.20;99.90;;;;;;4117536;28;20055;-81
2023/12/30 08:28:35;;;;;;;12.15;2.30;;;6.70;99.90;;;;;;4116997;28;20094;-81
2023/12/30 08:30:36;;;;;;;10.20;2.20;;;7.30;99.90;;;;;;4134724;28;20050;-81
2023/12/30 08:32:36;;;;;;;10.25;1.40;;;7.40;99.90;;;;;;4117159;28;20051;-80
2023/12/30 08:34:37;;;;;;;5.43;1.05;;;7.50;99.90;;;;;;4117166;28;20105;-81
2023/12/30 08:36:38;;;;;;;11.93;1.70;;;7.80;99.90;;;;;;4116993;28;20547;-81
2023/12/30 08:38:40;;;;;;;11.68;2.22;;;7.80;99.90;;;;;;4133168;28;20050;-81
2023/12/30 08:40:41;;;;;;;14.10;2.90;;;7.10;99.90;;;;;;4116474;28;20574;-80
2023/12/30 08:42:44;;;;;;;13.15;1.65;;;6.90;99.90;;;;;;4134218;28;20046;-81
2023/12/30 08:44:45;;;;;;;8.73;1.80;;;6.90;99.90;;;;;;4133025;28;20505;-81
2023/12/30 08:46:45;;;;;;;10.85;1.65;;;7.50;99.90;;;;;;4104896;28;20086;-81
2023/12/30 08:48:47;;;;;;;12.63;2.60;;;7.10;99.90;;;;;;4129170;28;20076;-81
2023/12/30 08:50:48;;;;;;;7.88;1.35;;;7.10;99.90;;;;;;4133963;28;20120;-81
2023/12/30 08:52:49;;;;;;;10.88;1.85;;;7.70;99.90;;;;;;4116595;28;20078;-81
2023/12/30 08:54:49;;;;;;;9.93;1.67;;;7.20;99.90;;;;;;4126043;28;20041;-81
2023/12/30 08:56:53;;;;;;;9.90;2.03;;;7.20;99.90;;;;;;4113621;28;20099;-81
2023/12/30 08:58:54;;;;;;;10.73;1.80;;;7.40;99.90;;;;;;4132369;28;20046;-81
2023/12/30 09:00:55;;;;;;;14.18;1.98;;;7.80;99.90;;;;;;4132432;28;20132;-81
2023/12/30 09:02:57;;;;;;;8.30;2.20;;;7.40;99.90;;;;;;4116477;28;20074;-81
2023/12/30 09:04:59;;;;;;;6.07;1.45;;;7.70;99.90;;;;;;4133201;28;20065;-81
2023/12/30 09:07:00;;;;;;;10.48;1.17;;;7.70;99.90;;;;;;4115493;28;20181;-81
2023/12/30 09:09:02;;;;;;;10.63;1.67;;;8.10;99.90;;;;;;4116260;28;20051;-82
2023/12/30 09:11:04;;;;;;;6.85;1.00;;;7.70;99.90;;;;;;4123791;28;20054;-81
2023/12/30 09:13:05;;;;;;;7.07;1.30;;;7.90;99.90;;;;;;4100240;29;20055;-81
2023/12/30 09:15:06;;;;;;;11.63;2.65;;;8.00;99.90;;;;;;4087962;28;20055;-81
2023/12/30 09:17:07;;;;;;;7.75;1.52;;;8.10;99.90;;;;;;4131168;28;20042;-81
2023/12/30 09:19:08;;;;;;;4.93;0.88;;;8.10;99.90;;;;;;4115294;28;20491;-81
2023/12/30 09:21:09;;;;;;;13.55;1.20;;;8.30;99.90;;;;;;4132912;28;20046;-81
2023/12/30 09:23:10;;;;;;;13.38;1.38;;;8.40;99.90;;;;;;4114616;28;20492;-81
2023/12/30 09:25:11;;;;;;;9.48;1.30;;;8.60;99.90;;;;;;4115700;28;20134;-81
2023/12/30 09:27:11;;;;;;;7.80;1.20;;;8.60;99.90;;;;;;4115568;28;20460;-81
2023/12/30 09:29:12;;;;;;;6.70;1.02;;;8.40;99.90;;;;;;4115899;28;20062;-81
2023/12/30 09:31:13;;;;;;;10.32;2.33;;;8.50;99.90;;;;;;4115484;28;20077;-81
2023/12/30 09:33:15;;;;;;;6.32;1.25;;;9.20;99.90;;;;;;4115804;28;20062;-81
2023/12/30 09:35:15;;;;;;;5.25;0.80;;;8.70;99.90;;;;;;4126616;28;20411;-81
2023/12/30 09:37:18;;;;;;;8.50;1.67;;;8.80;99.90;;;;;;4099337;29;20043;-81
2023/12/30 09:39:19;;;;;;;9.65;1.30;;;9.20;99.90;;;;;;4116600;28;20113;-81
2023/12/30 09:41:25;;;;;;;11.77;2.28;;;8.90;99.90;;;;;;4099200;28;20054;-81
2023/12/30 09:43:28;;;;;;;5.05;1.23;;;9.00;99.90;;;;;;4099584;29;20043;-81
2023/12/30 09:45:29;;;;;;;10.00;1.00;;;9.10;99.90;;;;;;4116432;28;20097;-81
2023/12/30 09:47:32;;;;;;;10.30;1.77;;;9.30;99.90;;;;;;4099536;29;20516;-81
2023/12/30 09:49:37;;;;;;;12.60;1.23;;;9.30;99.90;;;;;;4125747;28;20105;-81
2023/12/30 09:51:38;;;;;;;8.90;1.35;;;9.20;99.90;;;;;;4132758;28;20571;-81
2023/12/30 09:53:39;;;;;;;8.65;1.30;;;9.20;99.90;;;;;;4108926;28;20050;-81
2023/12/30 09:55:39;;;;;;;4.88;1.13;;;9.10;99.90;;;;;;4130903;28;20515;-81
2023/12/30 09:57:40;;;;;;;10.07;2.08;;;9.20;99.90;;;;;;4115001;28;20054;-81
2023/12/30 09:59:43;;;;;;;10.77;1.20;;;9.00;99.90;;;;;;4147684;28;20485;-81
2023/12/30 10:01:44;;;;;;;6.43;1.20;;;9.10;99.90;;;;;;4136176;28;20058;-81
2023/12/30 10:03:45;;;;;;;11.75;1.85;;;9.00;99.90;;;;;;4132204;28;20113;-81
2023/12/30 10:05:46;;;;;;;7.70;1.83;;;9.10;99.90;;;;;;4114117;28;20050;-79
2023/12/30 10:07:47;;;;;;;13.25;1.48;;;8.80;99.90;;;;;;4113257;28;20190;-79
2023/12/30 10:09:50;;;;;;;10.82;1.10;;;8.80;99.90;;;;;;4114884;28;20084;-79
2023/12/30 10:11:51;;;;;;;10.48;1.10;;;8.80;99.90;;;;;;4116005;28;20046;-79
2023/12/30 10:13:54;;;;;;;10.57;1.27;;;8.70;99.90;;;;;;4131513;28;20161;-79
2023/12/30 10:15:57;;;;;;;11.20;1.80;;;8.70;99.90;;;;;;4132256;28;20045;-79
2023/12/30 10:17:58;;;;;;;9.63;2.17;;;8.80;99.90;;;;;;4115200;28;20070;-79
2023/12/30 10:19:58;;;;;;;10.18;1.65;;;8.80;99.90;;;;;;4132124;28;20062;-79
2023/12/30 10:21:59;;;;;;;6.03;1.33;;;8.90;99.90;;;;;;4116522;28;20527;-79
2023/12/30 10:24:03;;;;;;;6.97;1.33;;;8.90;99.90;;;;;;4106271;28;20045;-79
2023/12/30 10:26:05;;;;;;;8.75;2.05;;;9.10;99.90;;;;;;4131718;28;20046;-79
2023/12/30 10:28:06;;;;;;;7.30;1.35;;;9.30;99.90;;;;;;4114551;28;20545;-79
2023/12/30 10:30:08;;;;;;;13.80;1.35;;;9.20;99.90;;;;;;4131757;28;20081;-80
2023/12/30 10:32:10;;;;;;;8.82;1.30;;;9.30;99.90;;;;;;4131264;28;20034;-79
2023/12/30 10:34:11;;;;;;;12.02;1.80;;;9.30;99.90;;;;;;4131097;28;20041;-79
2023/12/30 10:36:12;;;;;;;6.78;0.93;;;9.30;99.90;;;;;;4131439;28;20604;-79